createdAt,value
2019-03-03T00:01:50.344Z,75.13
2019-03-03T00:05:53.076Z,75.21
2019-03-03T00:09:55.852Z,75.66
2019-03-03T00:13:58.609Z,75.66
2019-03-03T00:18:01.436Z,75.29
2019-03-03T00:22:04.115Z,75.69
2019-03-03T00:26:06.838Z,74.77
2019-03-03T00:30:10.050Z,74.32
2019-03-03T00:34:12.938Z,74.57
2019-03-03T00:38:46.870Z,75.34
2019-03-03T00:43:17.310Z,74.04
2019-03-03T00:47:43.558Z,73.15
2019-03-03T00:52:01.710Z,73.45
2019-03-03T00:56:11.263Z,73.32
2019-03-03T01:00:37.238Z,73.75
2019-03-03T01:05:07.450Z,73.87
2019-03-03T01:09:43.709Z,73.92
2019-03-03T01:13:56.437Z,73.74
2019-03-03T01:18:20.940Z,74.01
2019-03-03T01:22:40.941Z,74.35
2019-03-03T01:26:43.925Z,74.01
2019-03-03T01:30:46.667Z,74.22
2019-03-03T01:34:49.590Z,74.41
2019-03-03T01:38:52.239Z,74.47
2019-03-03T01:42:54.860Z,75.01
2019-03-03T01:46:57.539Z,75.13
2019-03-03T01:51:00.604Z,75.27
2019-03-03T01:55:03.108Z,75.06
2019-03-03T01:59:06.960Z,75.18
2019-03-03T02:03:09.790Z,75.58
2019-03-03T02:07:12.472Z,75.54
2019-03-03T02:11:15.028Z,75.64
2019-03-03T02:15:17.922Z,75.60
2019-03-03T02:19:20.692Z,75.94
2019-03-03T02:23:23.694Z,76.60
2019-03-03T02:27:27.293Z,77.00
2019-03-03T02:31:30.163Z,77.18
2019-03-03T02:35:32.987Z,76.87
2019-03-03T02:39:35.744Z,76.86
2019-03-03T02:43:41.638Z,77.54
2019-03-03T02:47:44.620Z,77.43
2019-03-03T02:51:47.430Z,77.69
2019-03-03T02:55:50.120Z,77.58
2019-03-03T02:59:52.804Z,77.72
2019-03-03T03:03:55.372Z,77.76
2019-03-03T03:08:02.678Z,77.63
2019-03-03T03:12:30.259Z,78.40
2019-03-03T03:16:48.517Z,77.85
2019-03-03T03:21:17.219Z,78.02
2019-03-03T03:25:27.385Z,77.84
2019-03-03T03:29:48.918Z,78.04
2019-03-03T03:33:59.613Z,77.93
2019-03-03T03:38:18.561Z,77.80
2019-03-03T03:42:39.990Z,77.95
2019-03-03T03:46:51.289Z,77.97
2019-03-03T03:51:11.390Z,78.08
2019-03-03T03:55:32.203Z,78.31
2019-03-03T04:00:05.839Z,78.17
2019-03-03T04:04:39.531Z,77.99
2019-03-03T04:08:48.197Z,77.99
2019-03-03T04:13:19.196Z,78.43
2019-03-03T04:17:43.399Z,78.50
2019-03-03T04:22:08.132Z,78.39
2019-03-03T04:26:32.525Z,78.55
2019-03-03T04:30:53.848Z,78.86
2019-03-03T04:35:24.605Z,78.96
2019-03-03T04:39:33.850Z,79.23
2019-03-03T04:43:58.044Z,79.83
2019-03-03T04:48:28.068Z,79.11
2019-03-03T04:52:36.091Z,79.71
2019-03-03T04:56:58.033Z,80.13
2019-03-03T05:01:18.565Z,80.13
2019-03-03T05:05:28.411Z,79.86
2019-03-03T05:09:49.979Z,80.40
2019-03-03T05:13:57.553Z,80.41
2019-03-03T05:18:14.569Z,80.52
2019-03-03T05:22:17.114Z,79.94
2019-03-03T05:26:19.757Z,80.01
2019-03-03T05:30:22.607Z,79.71
2019-03-03T05:34:25.250Z,80.25
2019-03-03T05:38:27.990Z,80.25
2019-03-03T05:42:30.573Z,79.72
2019-03-03T05:46:33.189Z,79.50
2019-03-03T05:50:35.823Z,79.50
2019-03-03T05:54:38.515Z,78.92
2019-03-03T05:58:41.324Z,78.92
2019-03-03T06:02:44.003Z,78.15
2019-03-03T06:06:46.633Z,77.96
2019-03-03T06:10:49.293Z,77.69
2019-03-03T06:14:52.787Z,77.94
2019-03-03T06:18:55.413Z,77.99
2019-03-03T06:22:57.943Z,78.07
2019-03-03T06:27:00.517Z,78.01
2019-03-03T06:31:03.273Z,77.88
2019-03-03T06:35:06.913Z,77.88
2019-03-03T06:39:09.738Z,77.80
2019-03-03T06:43:12.498Z,77.65
2019-03-03T06:47:15.001Z,76.95
2019-03-03T06:51:17.554Z,76.24
2019-03-03T06:55:20.146Z,75.79
2019-03-03T06:59:23.130Z,75.79
2019-03-03T07:03:25.670Z,74.56
2019-03-03T07:07:28.451Z,73.91
2019-03-03T07:11:31.126Z,73.91
2019-03-03T07:15:33.724Z,73.29
2019-03-03T07:19:36.350Z,72.97
2019-03-03T07:23:39.050Z,72.62
2019-03-03T07:27:41.776Z,72.88
2019-03-03T07:31:44.524Z,72.57
2019-03-03T07:35:47.169Z,71.28
2019-03-03T07:39:49.967Z,71.40
2019-03-03T07:43:52.811Z,71.11
2019-03-03T07:47:55.584Z,70.72
2019-03-03T07:51:58.388Z,70.07
2019-03-03T07:56:01.267Z,70.10
2019-03-03T08:00:07.270Z,70.11
2019-03-03T08:04:10.009Z,69.41
2019-03-03T08:08:12.527Z,70.13
2019-03-03T08:12:15.364Z,70.08
2019-03-03T08:16:18.015Z,69.37
2019-03-03T08:20:21.342Z,69.76
2019-03-03T08:24:23.961Z,69.04
2019-03-03T08:28:26.637Z,68.82
2019-03-03T08:32:29.263Z,68.74
2019-03-03T08:36:31.910Z,68.54
2019-03-03T08:40:34.466Z,68.28
2019-03-03T08:44:47.779Z,68.46
2019-03-03T08:48:57.840Z,66.44
2019-03-03T08:53:26.032Z,66.19
2019-03-03T08:57:56.630Z,66.44
2019-03-03T09:02:24.165Z,65.73
2019-03-03T09:06:45.306Z,65.48
2019-03-03T09:11:12.546Z,63.37
2019-03-03T09:15:24.864Z,64.21
2019-03-03T09:19:45.164Z,64.58
2019-03-03T09:24:09.351Z,63.12
2019-03-03T09:28:30.080Z,62.86
2019-03-03T09:32:51.710Z,63.92
2019-03-03T09:37:05.353Z,63.40
2019-03-03T09:41:14.804Z,62.38
2019-03-03T09:45:45.346Z,62.34
2019-03-03T09:50:06.164Z,62.33
2019-03-03T09:54:28.830Z,61.57
2019-03-03T09:58:46.366Z,61.15
2019-03-03T10:03:00.429Z,60.35
2019-03-03T10:07:16.019Z,60.77
2019-03-03T10:11:43.283Z,60.33
2019-03-03T10:15:51.300Z,59.80
2019-03-03T10:20:22.573Z,59.96
2019-03-03T10:24:53.632Z,59.92
2019-03-03T10:29:15.069Z,60.28
2019-03-03T10:33:42.384Z,60.87
2019-03-03T10:38:07.520Z,60.51
2019-03-03T10:42:17.185Z,59.89
2019-03-03T10:46:37.201Z,59.04
2019-03-03T10:50:58.465Z,59.19
2019-03-03T10:55:26.500Z,57.53
2019-03-03T10:59:54.781Z,57.39
2019-03-03T11:04:11.204Z,58.60
2019-03-03T11:08:22.695Z,57.99
2019-03-03T11:12:44.024Z,56.57
2019-03-03T11:17:08.459Z,56.58
2019-03-03T11:21:39.059Z,57.31
2019-03-03T11:26:03.101Z,57.09
2019-03-03T11:30:28.010Z,56.87
2019-03-03T11:34:40.915Z,57.68
2019-03-03T11:39:02.031Z,57.10
2019-03-03T11:43:24.765Z,56.74
2019-03-03T11:48:04.094Z,56.20
2019-03-03T11:52:19.349Z,56.10
2019-03-03T11:56:37.082Z,57.05
2019-03-03T12:01:07.414Z,57.25
2019-03-03T12:05:34.164Z,57.27
2019-03-03T12:09:53.190Z,58.12
2019-03-03T12:14:22.484Z,57.29
2019-03-03T12:18:36.165Z,57.31
2019-03-03T12:22:56.355Z,56.40
2019-03-03T12:27:25.090Z,56.64
2019-03-03T12:31:52.789Z,56.12
2019-03-03T12:36:26.109Z,56.68
2019-03-03T12:40:45.985Z,56.68
2019-03-03T12:45:22.464Z,55.50
2019-03-03T12:49:32.058Z,55.54
2019-03-03T12:53:49.549Z,55.37
2019-03-03T12:58:09.626Z,55.87
2019-03-03T13:02:50.939Z,55.50
2019-03-03T13:07:21.494Z,55.42
2019-03-03T13:11:42.165Z,55.70
2019-03-03T13:16:03.382Z,55.79
2019-03-03T13:20:17.094Z,55.98
2019-03-03T13:24:31.329Z,55.71
2019-03-03T13:28:55.584Z,56.21
2019-03-03T13:33:22.659Z,56.49
2019-03-03T13:37:42.628Z,56.21
2019-03-03T13:42:02.825Z,56.46
2019-03-03T13:46:05.660Z,56.53
2019-03-03T13:50:10.375Z,57.04
2019-03-03T13:54:12.820Z,57.55
2019-03-03T13:58:15.461Z,57.97
2019-03-03T14:02:18.634Z,57.58
2019-03-03T14:06:21.385Z,57.64
2019-03-03T14:10:24.199Z,57.91
2019-03-03T14:14:27.045Z,57.86
2019-03-03T14:18:29.795Z,58.44
2019-03-03T14:22:32.195Z,58.14
2019-03-03T14:26:34.539Z,58.44
2019-03-03T14:30:37.040Z,58.50
2019-03-03T14:34:39.638Z,58.60
2019-03-03T14:38:42.295Z,58.72
2019-03-03T14:42:45.509Z,59.23
2019-03-03T14:46:48.255Z,59.33
2019-03-03T14:50:51.194Z,59.60
2019-03-03T14:54:53.900Z,59.66
2019-03-03T14:58:58.389Z,60.40
2019-03-03T15:03:02.979Z,60.03
2019-03-03T15:07:05.965Z,60.65
2019-03-03T15:11:08.454Z,60.88
2019-03-03T15:15:11.359Z,60.66
2019-03-03T15:19:14.243Z,61.01
2019-03-03T15:23:16.615Z,60.79
2019-03-03T15:27:19.397Z,61.11
2019-03-03T15:31:21.824Z,61.50
2019-03-03T15:35:24.395Z,61.87
2019-03-03T15:39:27.184Z,61.79
2019-03-03T15:43:30.035Z,61.91
2019-03-03T15:47:32.476Z,62.62
2019-03-03T15:51:35.209Z,62.30
2019-03-03T15:55:37.888Z,62.49
2019-03-03T15:59:40.620Z,62.84
2019-03-03T16:03:43.109Z,63.41
2019-03-03T16:07:46.880Z,63.37
2019-03-03T16:11:49.932Z,63.42
2019-03-03T16:15:52.703Z,63.81
2019-03-03T16:19:57.084Z,63.95
2019-03-03T16:23:59.703Z,63.99
2019-03-03T16:28:02.305Z,64.58
2019-03-03T16:32:05.141Z,64.79
2019-03-03T16:36:07.912Z,65.63
2019-03-03T16:40:13.483Z,66.03
2019-03-03T16:44:16.103Z,66.75
2019-03-03T16:48:20.389Z,66.82
2019-03-03T16:52:23.028Z,67.25
2019-03-03T16:56:25.789Z,67.72
2019-03-03T17:00:28.609Z,68.31
2019-03-03T17:04:31.786Z,68.34
2019-03-03T17:08:38.103Z,67.80
2019-03-03T17:12:41.597Z,68.00
2019-03-03T17:16:44.207Z,68.17
2019-03-03T17:20:47.387Z,68.72
2019-03-03T17:24:51.235Z,68.71
2019-03-03T17:28:53.985Z,68.84
2019-03-03T17:32:56.920Z,69.18
2019-03-03T17:37:00.018Z,69.56
2019-03-03T17:41:02.656Z,69.77
2019-03-03T17:45:07.711Z,70.01
2019-03-03T17:49:10.326Z,70.36
2019-03-03T17:53:13.057Z,70.91
2019-03-03T17:57:15.824Z,70.95
2019-03-03T18:01:18.650Z,71.05
2019-03-03T18:05:21.828Z,71.25
2019-03-03T18:09:24.561Z,71.32
2019-03-03T18:13:27.184Z,71.12
2019-03-03T18:17:29.958Z,71.52
2019-03-03T18:21:32.753Z,71.44
2019-03-03T18:25:35.431Z,71.72
2019-03-03T18:29:39.214Z,71.78
2019-03-03T18:33:41.831Z,70.55
2019-03-03T18:37:44.470Z,70.22
2019-03-03T18:41:47.612Z,69.73
2019-03-03T18:45:50.563Z,69.66
2019-03-03T18:49:53.199Z,69.82
2019-03-03T18:53:55.843Z,69.76
2019-03-03T18:57:58.599Z,69.70
2019-03-03T19:02:01.394Z,69.74
2019-03-03T19:06:04.212Z,69.77
2019-03-03T19:10:08.411Z,70.10
2019-03-03T19:14:11.180Z,70.15
2019-03-03T19:18:13.710Z,70.58
2019-03-03T19:22:19.421Z,70.71
2019-03-03T19:26:22.503Z,70.85
2019-03-03T19:30:26.216Z,71.00
2019-03-03T19:34:29.016Z,70.48
2019-03-03T19:38:31.757Z,70.97
2019-03-03T19:42:34.457Z,71.06
2019-03-03T19:46:37.223Z,71.60
2019-03-03T19:50:40.307Z,71.18
2019-03-03T19:54:43.007Z,71.22
2019-03-03T19:58:46.582Z,71.28
2019-03-03T20:02:49.777Z,71.40
2019-03-03T20:06:52.517Z,71.40
2019-03-03T20:10:55.650Z,71.30
2019-03-03T20:14:58.282Z,71.57
2019-03-03T20:19:01.051Z,71.82
2019-03-03T20:23:03.954Z,71.52
2019-03-03T20:27:06.859Z,71.33
2019-03-03T20:31:09.733Z,71.55
2019-03-03T20:35:12.893Z,71.64
2019-03-03T20:39:15.668Z,71.60
2019-03-03T20:43:18.427Z,71.61
2019-03-03T20:47:21.255Z,71.95
2019-03-03T20:51:24.104Z,71.75
2019-03-03T20:55:26.896Z,72.12
2019-03-03T20:59:29.499Z,71.92
2019-03-03T21:03:32.079Z,71.79
2019-03-03T21:07:34.653Z,71.81
2019-03-03T21:11:37.261Z,72.25
2019-03-03T21:15:39.812Z,72.03
2019-03-03T21:19:42.449Z,72.41
2019-03-03T21:23:45.529Z,72.29
2019-03-03T21:27:49.584Z,72.79
2019-03-03T21:31:52.475Z,72.70
2019-03-03T21:35:55.351Z,73.01
2019-03-03T21:39:58.320Z,72.96
2019-03-03T21:44:01.765Z,73.01
2019-03-03T21:48:04.703Z,72.92
2019-03-03T21:52:07.534Z,73.07
2019-03-03T21:56:10.534Z,73.33
2019-03-03T22:00:19.099Z,73.20
2019-03-03T22:04:22.511Z,73.59
2019-03-03T22:08:25.185Z,73.49
2019-03-03T22:12:27.829Z,73.81
2019-03-03T22:16:30.690Z,74.30
2019-03-03T22:20:33.502Z,74.09
2019-03-03T22:24:36.477Z,74.33
2019-03-03T22:28:39.393Z,74.35
2019-03-03T22:32:42.039Z,74.56
2019-03-03T22:36:44.920Z,74.49
2019-03-03T22:40:47.679Z,74.81
2019-03-03T22:44:50.411Z,74.55
2019-03-03T22:48:53.065Z,74.68
2019-03-03T22:52:55.839Z,74.76
2019-03-03T22:56:58.398Z,74.86
2019-03-03T23:01:22.277Z,74.74
2019-03-03T23:05:35.282Z,74.89
2019-03-03T23:10:29.807Z,74.87
2019-03-03T23:14:43.867Z,74.71
2019-03-03T23:19:21.889Z,74.75
2019-03-03T23:24:19.140Z,75.17
2019-03-03T23:28:23.466Z,74.89
2019-03-03T23:32:26.076Z,74.95
2019-03-03T23:36:28.762Z,75.00
2019-03-03T23:40:31.481Z,75.26
2019-03-03T23:44:34.139Z,75.01
2019-03-03T23:48:36.745Z,75.07
2019-03-03T23:52:39.503Z,75.19
2019-03-03T23:56:42.094Z,75.35
